sensor_id;sensor_type;location;lat;lon;timestamp;P1;durP1;ratioP1;P2;durP2;ratioP2
27305;SDS011;14792;50.886;6.468;2023-09-30T00:00:22;11.03;;;5.62;;
27305;SDS011;14792;50.886;6.468;2023-09-30T00:03:23;10.43;;;5.83;;
27305;SDS011;14792;50.886;6.468;2023-09-30T00:06:25;12.58;;;5.40;;
27305;SDS011;14792;50.886;6.468;2023-09-30T00:09:26;11.12;;;5.33;;
27305;SDS011;14792;50.886;6.468;2023-09-30T00:12:28;9.30;;;5.25;;
27305;SDS011;14792;50.886;6.468;2023-09-30T00:15:29;11.00;;;5.08;;
27305;SDS011;14792;50.886;6.468;2023-09-30T00:18:31;12.18;;;6.08;;
27305;SDS011;14792;50.886;6.468;2023-09-30T00:21:33;10.25;;;5.72;;
27305;SDS011;14792;50.886;6.468;2023-09-30T00:24:34;10.63;;;5.67;;
27305;SDS011;14792;50.886;6.468;2023-09-30T00:27:36;11.53;;;5.75;;
27305;SDS011;14792;50.886;6.468;2023-09-30T00:30:37;15.28;;;6.58;;
27305;SDS011;14792;50.886;6.468;2023-09-30T00:33:39;14.58;;;6.10;;
27305;SDS011;14792;50.886;6.468;2023-09-30T00:36:41;12.35;;;5.50;;
27305;SDS011;14792;50.886;6.468;2023-09-30T00:39:42;12.50;;;6.03;;
27305;SDS011;14792;50.886;6.468;2023-09-30T00:42:44;12.00;;;6.00;;
27305;SDS011;14792;50.886;6.468;2023-09-30T00:45:46;11.20;;;6.15;;
27305;SDS011;14792;50.886;6.468;2023-09-30T00:48:47;14.63;;;6.20;;
27305;SDS011;14792;50.886;6.468;2023-09-30T00:51:49;11.40;;;6.17;;
27305;SDS011;14792;50.886;6.468;2023-09-30T00:54:50;14.33;;;6.80;;
27305;SDS011;14792;50.886;6.468;2023-09-30T00:57:52;13.62;;;7.55;;
27305;SDS011;14792;50.886;6.468;2023-09-30T01:00:53;16.62;;;7.40;;
27305;SDS011;14792;50.886;6.468;2023-09-30T01:03:55;15.25;;;7.20;;
27305;SDS011;14792;50.886;6.468;2023-09-30T01:06:56;15.75;;;7.00;;
27305;SDS011;14792;50.886;6.468;2023-09-30T01:09:58;18.75;;;7.92;;
27305;SDS011;14792;50.886;6.468;2023-09-30T01:13:00;11.40;;;6.75;;
27305;SDS011;14792;50.886;6.468;2023-09-30T01:16:04;13.40;;;6.40;;
27305;SDS011;14792;50.886;6.468;2023-09-30T01:19:08;13.93;;;7.22;;
27305;SDS011;14792;50.886;6.468;2023-09-30T01:22:10;18.65;;;7.42;;
27305;SDS011;14792;50.886;6.468;2023-09-30T01:25:11;16.05;;;7.50;;
27305;SDS011;14792;50.886;6.468;2023-09-30T01:28:13;14.85;;;7.00;;
27305;SDS011;14792;50.886;6.468;2023-09-30T01:31:15;15.58;;;7.92;;
27305;SDS011;14792;50.886;6.468;2023-09-30T01:34:16;19.75;;;7.42;;
27305;SDS011;14792;50.886;6.468;2023-09-30T01:37:18;13.58;;;7.35;;
27305;SDS011;14792;50.886;6.468;2023-09-30T01:40:19;13.72;;;6.55;;
27305;SDS011;14792;50.886;6.468;2023-09-30T01:43:21;13.18;;;6.80;;
27305;SDS011;14792;50.886;6.468;2023-09-30T01:46:23;14.73;;;6.00;;
27305;SDS011;14792;50.886;6.468;2023-09-30T01:49:24;15.68;;;6.90;;
27305;SDS011;14792;50.886;6.468;2023-09-30T01:52:26;15.93;;;6.58;;
27305;SDS011;14792;50.886;6.468;2023-09-30T01:55:27;17.73;;;7.67;;
27305;SDS011;14792;50.886;6.468;2023-09-30T01:58:29;15.43;;;7.40;;
27305;SDS011;14792;50.886;6.468;2023-09-30T02:01:31;14.30;;;7.72;;
27305;SDS011;14792;50.886;6.468;2023-09-30T02:04:32;14.20;;;7.25;;
27305;SDS011;14792;50.886;6.468;2023-09-30T02:07:34;15.23;;;7.58;;
27305;SDS011;14792;50.886;6.468;2023-09-30T02:10:35;12.68;;;6.92;;
27305;SDS011;14792;50.886;6.468;2023-09-30T02:13:37;16.60;;;7.10;;
27305;SDS011;14792;50.886;6.468;2023-09-30T02:16:38;16.17;;;7.33;;
27305;SDS011;14792;50.886;6.468;2023-09-30T02:19:40;12.00;;;6.67;;
27305;SDS011;14792;50.886;6.468;2023-09-30T02:22:42;12.98;;;6.87;;
27305;SDS011;14792;50.886;6.468;2023-09-30T02:25:43;10.30;;;6.65;;
27305;SDS011;14792;50.886;6.468;2023-09-30T02:28:45;13.00;;;7.20;;
27305;SDS011;14792;50.886;6.468;2023-09-30T02:31:46;15.83;;;7.80;;
27305;SDS011;14792;50.886;6.468;2023-09-30T02:34:48;21.95;;;6.97;;
27305;SDS011;14792;50.886;6.468;2023-09-30T02:37:50;16.15;;;6.97;;
27305;SDS011;14792;50.886;6.468;2023-09-30T02:40:51;13.15;;;7.12;;
27305;SDS011;14792;50.886;6.468;2023-09-30T02:43:53;15.43;;;7.70;;
27305;SDS011;14792;50.886;6.468;2023-09-30T02:46:54;15.85;;;8.48;;
27305;SDS011;14792;50.886;6.468;2023-09-30T02:49:56;18.42;;;7.65;;
27305;SDS011;14792;50.886;6.468;2023-09-30T02:52:58;14.45;;;7.08;;
27305;SDS011;14792;50.886;6.468;2023-09-30T02:55:59;16.65;;;8.35;;
27305;SDS011;14792;50.886;6.468;2023-09-30T02:59:01;13.93;;;7.90;;
27305;SDS011;14792;50.886;6.468;2023-09-30T03:02:02;13.15;;;7.42;;
27305;SDS011;14792;50.886;6.468;2023-09-30T03:05:04;15.43;;;8.53;;
27305;SDS011;14792;50.886;6.468;2023-09-30T03:08:05;14.00;;;8.15;;
27305;SDS011;14792;50.886;6.468;2023-09-30T03:11:07;15.20;;;7.97;;
27305;SDS011;14792;50.886;6.468;2023-09-30T03:14:09;17.25;;;8.43;;
27305;SDS011;14792;50.886;6.468;2023-09-30T03:17:10;18.42;;;8.53;;
27305;SDS011;14792;50.886;6.468;2023-09-30T03:20:12;15.72;;;7.92;;
27305;SDS011;14792;50.886;6.468;2023-09-30T03:23:13;12.35;;;8.03;;
27305;SDS011;14792;50.886;6.468;2023-09-30T03:26:15;13.62;;;7.58;;
27305;SDS011;14792;50.886;6.468;2023-09-30T03:29:17;15.93;;;8.40;;
27305;SDS011;14792;50.886;6.468;2023-09-30T03:32:18;12.43;;;8.25;;
27305;SDS011;14792;50.886;6.468;2023-09-30T03:35:20;12.63;;;7.10;;
27305;SDS011;14792;50.886;6.468;2023-09-30T03:38:21;13.20;;;7.62;;
27305;SDS011;14792;50.886;6.468;2023-09-30T03:41:23;17.45;;;7.70;;
27305;SDS011;14792;50.886;6.468;2023-09-30T03:44:25;11.45;;;6.90;;
27305;SDS011;14792;50.886;6.468;2023-09-30T03:47:26;14.85;;;7.37;;
27305;SDS011;14792;50.886;6.468;2023-09-30T03:50:28;15.32;;;7.92;;
27305;SDS011;14792;50.886;6.468;2023-09-30T03:53:29;12.23;;;6.67;;
27305;SDS011;14792;50.886;6.468;2023-09-30T03:56:31;13.32;;;7.35;;
27305;SDS011;14792;50.886;6.468;2023-09-30T03:59:32;12.28;;;6.15;;
27305;SDS011;14792;50.886;6.468;2023-09-30T04:02:34;10.35;;;5.60;;
27305;SDS011;14792;50.886;6.468;2023-09-30T04:05:36;13.00;;;7.15;;
27305;SDS011;14792;50.886;6.468;2023-09-30T04:08:37;18.12;;;7.40;;
27305;SDS011;14792;50.886;6.468;2023-09-30T04:11:39;13.80;;;7.60;;
27305;SDS011;14792;50.886;6.468;2023-09-30T04:14:40;16.65;;;7.20;;
27305;SDS011;14792;50.886;6.468;2023-09-30T04:17:42;12.55;;;6.30;;
27305;SDS011;14792;50.886;6.468;2023-09-30T04:20:44;14.87;;;6.67;;
27305;SDS011;14792;50.886;6.468;2023-09-30T04:23:45;16.05;;;7.85;;
27305;SDS011;14792;50.886;6.468;2023-09-30T04:26:47;17.85;;;7.37;;
27305;SDS011;14792;50.886;6.468;2023-09-30T04:29:48;19.32;;;8.78;;
27305;SDS011;14792;50.886;6.468;2023-09-30T04:32:50;17.32;;;7.85;;
27305;SDS011;14792;50.886;6.468;2023-09-30T04:35:52;17.00;;;8.43;;
27305;SDS011;14792;50.886;6.468;2023-09-30T04:38:53;15.68;;;8.55;;
27305;SDS011;14792;50.886;6.468;2023-09-30T04:41:55;27.02;;;11.73;;
27305;SDS011;14792;50.886;6.468;2023-09-30T04:44:58;24.70;;;11.97;;
27305;SDS011;14792;50.886;6.468;2023-09-30T04:47:59;21.48;;;11.08;;
27305;SDS011;14792;50.886;6.468;2023-09-30T04:51:01;20.52;;;11.28;;
27305;SDS011;14792;50.886;6.468;2023-09-30T04:54:02;19.30;;;10.95;;
27305;SDS011;14792;50.886;6.468;2023-09-30T04:57:04;21.60;;;10.72;;
27305;SDS011;14792;50.886;6.468;2023-09-30T05:00:06;21.02;;;11.03;;
27305;SDS011;14792;50.886;6.468;2023-09-30T05:03:10;24.15;;;12.00;;
27305;SDS011;14792;50.886;6.468;2023-09-30T05:06:12;18.65;;;10.10;;
27305;SDS011;14792;50.886;6.468;2023-09-30T05:09:13;21.85;;;11.33;;
27305;SDS011;14792;50.886;6.468;2023-09-30T05:12:15;16.80;;;11.08;;
27305;SDS011;14792;50.886;6.468;2023-09-30T05:15:16;25.37;;;11.05;;
27305;SDS011;14792;50.886;6.468;2023-09-30T05:18:18;18.92;;;10.40;;
27305;SDS011;14792;50.886;6.468;2023-09-30T05:21:20;17.48;;;9.80;;
27305;SDS011;14792;50.886;6.468;2023-09-30T05:24:21;15.45;;;9.40;;
27305;SDS011;14792;50.886;6.468;2023-09-30T05:27:23;15.55;;;9.75;;
27305;SDS011;14792;50.886;6.468;2023-09-30T05:30:24;16.93;;;9.65;;
27305;SDS011;14792;50.886;6.468;2023-09-30T05:33:26;15.30;;;8.58;;
27305;SDS011;14792;50.886;6.468;2023-09-30T05:36:27;15.25;;;9.35;;
27305;SDS011;14792;50.886;6.468;2023-09-30T05:39:29;20.17;;;9.85;;
27305;SDS011;14792;50.886;6.468;2023-09-30T05:42:31;17.75;;;9.10;;
27305;SDS011;14792;50.886;6.468;2023-09-30T05:45:32;19.15;;;10.18;;
27305;SDS011;14792;50.886;6.468;2023-09-30T05:48:36;18.55;;;10.15;;
27305;SDS011;14792;50.886;6.468;2023-09-30T05:51:38;21.87;;;11.30;;
27305;SDS011;14792;50.886;6.468;2023-09-30T05:54:40;15.15;;;8.93;;
27305;SDS011;14792;50.886;6.468;2023-09-30T05:57:41;17.02;;;9.90;;
27305;SDS011;14792;50.886;6.468;2023-09-30T06:00:43;15.63;;;9.25;;
27305;SDS011;14792;50.886;6.468;2023-09-30T06:03:45;13.95;;;9.83;;
27305;SDS011;14792;50.886;6.468;2023-09-30T06:06:46;19.95;;;9.83;;
27305;SDS011;14792;50.886;6.468;2023-09-30T06:09:48;15.80;;;9.45;;
27305;SDS011;14792;50.886;6.468;2023-09-30T06:12:50;17.65;;;9.75;;
27305;SDS011;14792;50.886;6.468;2023-09-30T06:15:51;20.50;;;10.68;;
27305;SDS011;14792;50.886;6.468;2023-09-30T06:18:53;15.48;;;9.68;;
27305;SDS011;14792;50.886;6.468;2023-09-30T06:21:54;16.30;;;11.70;;
27305;SDS011;14792;50.886;6.468;2023-09-30T06:24:56;22.25;;;12.13;;
27305;SDS011;14792;50.886;6.468;2023-09-30T06:27:57;21.97;;;13.15;;
27305;SDS011;14792;50.886;6.468;2023-09-30T06:30:59;23.22;;;12.88;;
27305;SDS011;14792;50.886;6.468;2023-09-30T06:34:00;23.80;;;13.50;;
27305;SDS011;14792;50.886;6.468;2023-09-30T06:37:02;20.90;;;13.60;;
27305;SDS011;14792;50.886;6.468;2023-09-30T06:40:06;28.23;;;18.27;;
27305;SDS011;14792;50.886;6.468;2023-09-30T06:43:05;26.97;;;18.05;;
27305;SDS011;14792;50.886;6.468;2023-09-30T06:46:07;25.75;;;17.50;;
27305;SDS011;14792;50.886;6.468;2023-09-30T06:49:08;29.05;;;17.65;;
27305;SDS011;14792;50.886;6.468;2023-09-30T06:52:10;31.37;;;18.20;;
27305;SDS011;14792;50.886;6.468;2023-09-30T06:55:12;31.23;;;18.80;;
27305;SDS011;14792;50.886;6.468;2023-09-30T06:58:13;29.40;;;17.92;;
27305;SDS011;14792;50.886;6.468;2023-09-30T07:01:15;25.55;;;18.45;;
27305;SDS011;14792;50.886;6.468;2023-09-30T07:04:16;26.75;;;18.15;;
27305;SDS011;14792;50.886;6.468;2023-09-30T07:07:18;26.48;;;17.90;;
27305;SDS011;14792;50.886;6.468;2023-09-30T07:10:19;27.45;;;16.40;;
27305;SDS011;14792;50.886;6.468;2023-09-30T07:13:21;22.48;;;15.05;;
27305;SDS011;14792;50.886;6.468;2023-09-30T07:16:23;22.05;;;15.30;;
27305;SDS011;14792;50.886;6.468;2023-09-30T07:19:24;23.50;;;14.43;;
27305;SDS011;14792;50.886;6.468;2023-09-30T07:22:26;20.50;;;14.87;;
27305;SDS011;14792;50.886;6.468;2023-09-30T07:25:27;20.65;;;14.10;;
27305;SDS011;14792;50.886;6.468;2023-09-30T07:28:29;18.77;;;13.95;;
27305;SDS011;14792;50.886;6.468;2023-09-30T07:31:34;17.30;;;12.95;;
27305;SDS011;14792;50.886;6.468;2023-09-30T07:34:35;19.55;;;13.80;;
27305;SDS011;14792;50.886;6.468;2023-09-30T07:37:36;23.20;;;12.50;;
27305;SDS011;14792;50.886;6.468;2023-09-30T07:40:38;16.67;;;13.08;;
27305;SDS011;14792;50.886;6.468;2023-09-30T07:43:40;18.00;;;12.05;;
27305;SDS011;14792;50.886;6.468;2023-09-30T07:46:41;17.80;;;13.05;;
27305;SDS011;14792;50.886;6.468;2023-09-30T07:49:43;19.05;;;11.35;;
27305;SDS011;14792;50.886;6.468;2023-09-30T07:52:44;16.87;;;11.25;;
27305;SDS011;14792;50.886;6.468;2023-09-30T07:55:46;16.82;;;10.08;;
27305;SDS011;14792;50.886;6.468;2023-09-30T07:58:48;14.10;;;10.20;;
27305;SDS011;14792;50.886;6.468;2023-09-30T08:01:49;14.05;;;10.15;;
27305;SDS011;14792;50.886;6.468;2023-09-30T08:04:51;15.45;;;10.18;;
27305;SDS011;14792;50.886;6.468;2023-09-30T08:07:52;12.37;;;10.18;;
27305;SDS011;14792;50.886;6.468;2023-09-30T08:10:54;15.90;;;10.78;;
27305;SDS011;14792;50.886;6.468;2023-09-30T08:13:56;17.45;;;10.63;;
27305;SDS011;14792;50.886;6.468;2023-09-30T08:16:57;14.07;;;10.20;;
27305;SDS011;14792;50.886;6.468;2023-09-30T08:19:59;16.55;;;10.82;;
27305;SDS011;14792;50.886;6.468;2023-09-30T08:23:00;15.70;;;9.70;;
27305;SDS011;14792;50.886;6.468;2023-09-30T08:26:02;13.00;;;9.05;;
27305;SDS011;14792;50.886;6.468;2023-09-30T08:29:03;15.05;;;8.58;;
27305;SDS011;14792;50.886;6.468;2023-09-30T08:32:05;13.32;;;7.85;;
27305;SDS011;14792;50.886;6.468;2023-09-30T08:35:07;10.58;;;7.20;;
27305;SDS011;14792;50.886;6.468;2023-09-30T08:38:08;12.93;;;6.80;;
27305;SDS011;14792;50.886;6.468;2023-09-30T08:41:11;15.30;;;7.12;;
27305;SDS011;14792;50.886;6.468;2023-09-30T08:44:11;12.30;;;6.12;;
27305;SDS011;14792;50.886;6.468;2023-09-30T08:47:13;15.68;;;7.20;;
27305;SDS011;14792;50.886;6.468;2023-09-30T08:50:15;13.32;;;6.58;;
27305;SDS011;14792;50.886;6.468;2023-09-30T08:53:16;14.47;;;5.55;;
27305;SDS011;14792;50.886;6.468;2023-09-30T08:56:19;9.45;;;5.42;;
27305;SDS011;14792;50.886;6.468;2023-09-30T08:59:22;13.78;;;5.60;;
27305;SDS011;14792;50.886;6.468;2023-09-30T09:02:24;12.47;;;5.42;;
27305;SDS011;14792;50.886;6.468;2023-09-30T09:05:25;9.23;;;5.03;;
27305;SDS011;14792;50.886;6.468;2023-09-30T09:08:27;11.78;;;5.03;;
27305;SDS011;14792;50.886;6.468;2023-09-30T09:11:36;9.98;;;5.05;;
27305;SDS011;14792;50.886;6.468;2023-09-30T09:14:36;9.80;;;4.70;;
27305;SDS011;14792;50.886;6.468;2023-09-30T09:17:41;10.53;;;4.80;;
27305;SDS011;14792;50.886;6.468;2023-09-30T09:20:42;9.90;;;3.95;;
27305;SDS011;14792;50.886;6.468;2023-09-30T09:23:44;9.75;;;4.67;;
27305;SDS011;14792;50.886;6.468;2023-09-30T09:26:45;9.98;;;4.20;;
27305;SDS011;14792;50.886;6.468;2023-09-30T09:29:47;10.55;;;3.98;;
27305;SDS011;14792;50.886;6.468;2023-09-30T09:32:56;13.68;;;3.90;;
27305;SDS011;14792;50.886;6.468;2023-09-30T09:36:02;11.40;;;3.60;;
27305;SDS011;14792;50.886;6.468;2023-09-30T09:39:03;9.58;;;3.10;;
27305;SDS011;14792;50.886;6.468;2023-09-30T09:42:05;9.05;;;3.00;;
27305;SDS011;14792;50.886;6.468;2023-09-30T09:45:06;7.17;;;2.62;;
27305;SDS011;14792;50.886;6.468;2023-09-30T09:48:08;6.78;;;2.72;;
27305;SDS011;14792;50.886;6.468;2023-09-30T09:51:12;11.55;;;3.40;;
27305;SDS011;14792;50.886;6.468;2023-09-30T09:54:14;12.65;;;3.40;;
27305;SDS011;14792;50.886;6.468;2023-09-30T09:57:16;6.15;;;3.10;;
27305;SDS011;14792;50.886;6.468;2023-09-30T10:00:18;10.03;;;3.02;;
27305;SDS011;14792;50.886;6.468;2023-09-30T10:03:19;9.05;;;3.10;;
27305;SDS011;14792;50.886;6.468;2023-09-30T10:06:20;7.00;;;3.08;;
27305;SDS011;14792;50.886;6.468;2023-09-30T10:09:22;9.43;;;3.47;;
27305;SDS011;14792;50.886;6.468;2023-09-30T10:12:24;7.53;;;3.05;;
27305;SDS011;14792;50.886;6.468;2023-09-30T10:18:27;8.85;;;2.92;;
27305;SDS011;14792;50.886;6.468;2023-09-30T10:21:28;10.32;;;3.58;;
27305;SDS011;14792;50.886;6.468;2023-09-30T10:24:30;10.58;;;3.02;;
27305;SDS011;14792;50.886;6.468;2023-09-30T10:27:32;10.63;;;3.52;;
27305;SDS011;14792;50.886;6.468;2023-09-30T10:30:33;10.72;;;3.62;;
27305;SDS011;14792;50.886;6.468;2023-09-30T10:33:34;7.78;;;2.77;;
27305;SDS011;14792;50.886;6.468;2023-09-30T10:36:39;8.78;;;2.95;;
27305;SDS011;14792;50.886;6.468;2023-09-30T10:42:58;8.00;;;2.80;;
27305;SDS011;14792;50.886;6.468;2023-09-30T10:45:59;9.85;;;2.92;;
27305;SDS011;14792;50.886;6.468;2023-09-30T10:49:47;8.20;;;2.87;;
27305;SDS011;14792;50.886;6.468;2023-09-30T10:52:12;6.42;;;2.75;;
27305;SDS011;14792;50.886;6.468;2023-09-30T10:55:17;6.03;;;2.83;;
27305;SDS011;14792;50.886;6.468;2023-09-30T10:58:15;6.42;;;2.60;;
27305;SDS011;14792;50.886;6.468;2023-09-30T11:01:19;9.78;;;3.35;;
27305;SDS011;14792;50.886;6.468;2023-09-30T11:04:18;9.33;;;2.90;;
27305;SDS011;14792;50.886;6.468;2023-09-30T11:07:22;10.05;;;3.50;;
27305;SDS011;14792;50.886;6.468;2023-09-30T11:10:21;8.50;;;2.95;;
27305;SDS011;14792;50.886;6.468;2023-09-30T11:13:23;9.38;;;3.27;;
27305;SDS011;14792;50.886;6.468;2023-09-30T11:16:24;8.73;;;3.25;;
27305;SDS011;14792;50.886;6.468;2023-09-30T11:19:32;8.95;;;2.98;;
27305;SDS011;14792;50.886;6.468;2023-09-30T11:22:27;9.35;;;3.00;;
27305;SDS011;14792;50.886;6.468;2023-09-30T11:25:29;6.12;;;2.87;;
27305;SDS011;14792;50.886;6.468;2023-09-30T11:28:40;8.70;;;2.98;;
27305;SDS011;14792;50.886;6.468;2023-09-30T11:31:41;11.75;;;3.58;;
27305;SDS011;14792;50.886;6.468;2023-09-30T11:34:42;9.88;;;3.70;;
27305;SDS011;14792;50.886;6.468;2023-09-30T11:37:44;8.68;;;3.30;;
27305;SDS011;14792;50.886;6.468;2023-09-30T11:41:04;7.30;;;2.90;;
27305;SDS011;14792;50.886;6.468;2023-09-30T11:44:06;10.90;;;3.42;;
27305;SDS011;14792;50.886;6.468;2023-09-30T11:47:09;8.05;;;3.08;;
27305;SDS011;14792;50.886;6.468;2023-09-30T11:50:11;8.50;;;3.05;;
27305;SDS011;14792;50.886;6.468;2023-09-30T11:53:16;6.30;;;2.72;;
27305;SDS011;14792;50.886;6.468;2023-09-30T11:56:20;5.60;;;2.75;;
27305;SDS011;14792;50.886;6.468;2023-09-30T11:59:21;6.33;;;2.75;;
27305;SDS011;14792;50.886;6.468;2023-09-30T12:02:23;7.72;;;3.30;;
27305;SDS011;14792;50.886;6.468;2023-09-30T12:05:24;8.85;;;3.00;;
27305;SDS011;14792;50.886;6.468;2023-09-30T12:08:26;7.10;;;2.90;;
27305;SDS011;14792;50.886;6.468;2023-09-30T12:11:28;8.25;;;3.30;;
27305;SDS011;14792;50.886;6.468;2023-09-30T12:14:29;7.40;;;2.75;;
27305;SDS011;14792;50.886;6.468;2023-09-30T12:17:31;6.83;;;3.08;;
27305;SDS011;14792;50.886;6.468;2023-09-30T12:20:32;8.53;;;3.47;;
27305;SDS011;14792;50.886;6.468;2023-09-30T12:23:34;6.37;;;3.12;;
27305;SDS011;14792;50.886;6.468;2023-09-30T12:26:35;10.60;;;3.45;;
27305;SDS011;14792;50.886;6.468;2023-09-30T12:29:37;5.15;;;2.58;;
27305;SDS011;14792;50.886;6.468;2023-09-30T12:32:39;6.12;;;3.27;;
27305;SDS011;14792;50.886;6.468;2023-09-30T12:35:40;8.65;;;3.02;;
27305;SDS011;14792;50.886;6.468;2023-09-30T12:38:42;6.78;;;3.12;;
27305;SDS011;14792;50.886;6.468;2023-09-30T12:41:43;10.00;;;4.05;;
27305;SDS011;14792;50.886;6.468;2023-09-30T12:44:45;11.43;;;3.60;;
27305;SDS011;14792;50.886;6.468;2023-09-30T12:47:47;7.40;;;3.60;;
27305;SDS011;14792;50.886;6.468;2023-09-30T12:50:48;7.47;;;3.40;;
27305;SDS011;14792;50.886;6.468;2023-09-30T12:53:50;11.80;;;3.75;;
27305;SDS011;14792;50.886;6.468;2023-09-30T12:56:51;7.58;;;3.77;;
27305;SDS011;14792;50.886;6.468;2023-09-30T12:59:53;7.42;;;3.70;;
27305;SDS011;14792;50.886;6.468;2023-09-30T13:02:55;7.53;;;3.75;;
27305;SDS011;14792;50.886;6.468;2023-09-30T13:05:57;10.03;;;4.40;;
27305;SDS011;14792;50.886;6.468;2023-09-30T13:08:58;8.10;;;3.75;;
27305;SDS011;14792;50.886;6.468;2023-09-30T13:12:00;6.90;;;3.35;;
27305;SDS011;14792;50.886;6.468;2023-09-30T13:15:01;9.00;;;3.83;;
27305;SDS011;14792;50.886;6.468;2023-09-30T13:18:03;10.95;;;3.83;;
27305;SDS011;14792;50.886;6.468;2023-09-30T13:21:04;10.93;;;4.28;;
27305;SDS011;14792;50.886;6.468;2023-09-30T13:24:06;8.78;;;3.37;;
27305;SDS011;14792;50.886;6.468;2023-09-30T13:27:08;7.92;;;3.70;;
27305;SDS011;14792;50.886;6.468;2023-09-30T13:30:09;9.70;;;3.83;;
27305;SDS011;14792;50.886;6.468;2023-09-30T13:33:11;6.87;;;3.20;;
27305;SDS011;14792;50.886;6.468;2023-09-30T13:36:12;8.00;;;3.77;;
27305;SDS011;14792;50.886;6.468;2023-09-30T13:39:14;7.17;;;4.03;;
27305;SDS011;14792;50.886;6.468;2023-09-30T13:42:16;10.20;;;3.80;;
27305;SDS011;14792;50.886;6.468;2023-09-30T13:45:17;9.18;;;3.85;;
27305;SDS011;14792;50.886;6.468;2023-09-30T13:48:19;11.63;;;3.52;;
27305;SDS011;14792;50.886;6.468;2023-09-30T13:51:20;12.53;;;3.90;;
27305;SDS011;14792;50.886;6.468;2023-09-30T13:54:22;8.70;;;3.50;;
27305;SDS011;14792;50.886;6.468;2023-09-30T13:57:24;12.82;;;3.80;;
27305;SDS011;14792;50.886;6.468;2023-09-30T14:00:25;7.00;;;3.52;;
27305;SDS011;14792;50.886;6.468;2023-09-30T14:03:27;9.08;;;3.42;;
27305;SDS011;14792;50.886;6.468;2023-09-30T14:06:29;8.43;;;3.83;;
27305;SDS011;14792;50.886;6.468;2023-09-30T14:09:30;6.70;;;3.52;;
27305;SDS011;14792;50.886;6.468;2023-09-30T14:12:32;9.88;;;3.50;;
27305;SDS011;14792;50.886;6.468;2023-09-30T14:15:33;6.95;;;3.83;;
27305;SDS011;14792;50.886;6.468;2023-09-30T14:18:35;8.70;;;3.83;;
27305;SDS011;14792;50.886;6.468;2023-09-30T14:21:36;10.25;;;3.83;;
27305;SDS011;14792;50.886;6.468;2023-09-30T14:24:38;10.55;;;3.80;;
27305;SDS011;14792;50.886;6.468;2023-09-30T14:27:40;9.38;;;3.90;;
27305;SDS011;14792;50.886;6.468;2023-09-30T14:30:41;7.40;;;3.55;;
27305;SDS011;14792;50.886;6.468;2023-09-30T14:33:43;9.43;;;4.15;;
27305;SDS011;14792;50.886;6.468;2023-09-30T14:36:44;8.13;;;3.98;;
27305;SDS011;14792;50.886;6.468;2023-09-30T14:39:46;9.78;;;4.00;;
27305;SDS011;14792;50.886;6.468;2023-09-30T14:42:48;8.03;;;3.90;;
27305;SDS011;14792;50.886;6.468;2023-09-30T14:45:49;9.98;;;4.12;;
27305;SDS011;14792;50.886;6.468;2023-09-30T14:48:51;9.45;;;3.85;;
27305;SDS011;14792;50.886;6.468;2023-09-30T14:51:52;8.35;;;3.95;;
27305;SDS011;14792;50.886;6.468;2023-09-30T14:54:54;8.98;;;4.03;;
27305;SDS011;14792;50.886;6.468;2023-09-30T14:57:56;6.22;;;3.55;;
27305;SDS011;14792;50.886;6.468;2023-09-30T15:00:57;7.72;;;3.60;;
27305;SDS011;14792;50.886;6.468;2023-09-30T15:03:59;9.53;;;4.03;;
27305;SDS011;14792;50.886;6.468;2023-09-30T15:07:00;9.83;;;4.20;;
27305;SDS011;14792;50.886;6.468;2023-09-30T15:10:02;9.60;;;3.67;;
27305;SDS011;14792;50.886;6.468;2023-09-30T15:13:04;7.15;;;4.00;;
27305;SDS011;14792;50.886;6.468;2023-09-30T15:16:05;7.35;;;3.40;;
27305;SDS011;14792;50.886;6.468;2023-09-30T15:19:07;9.65;;;4.03;;
27305;SDS011;14792;50.886;6.468;2023-09-30T15:22:08;12.33;;;3.90;;
27305;SDS011;14792;50.886;6.468;2023-09-30T15:25:10;10.50;;;3.62;;
27305;SDS011;14792;50.886;6.468;2023-09-30T15:28:12;10.65;;;3.60;;
27305;SDS011;14792;50.886;6.468;2023-09-30T15:31:13;9.93;;;3.10;;
27305;SDS011;14792;50.886;6.468;2023-09-30T15:34:15;9.43;;;3.12;;
27305;SDS011;14792;50.886;6.468;2023-09-30T15:37:16;12.82;;;4.17;;
27305;SDS011;14792;50.886;6.468;2023-09-30T15:40:18;16.52;;;4.25;;
27305;SDS011;14792;50.886;6.468;2023-09-30T15:43:20;12.75;;;3.25;;
27305;SDS011;14792;50.886;6.468;2023-09-30T15:46:21;11.55;;;3.52;;
27305;SDS011;14792;50.886;6.468;2023-09-30T15:49:23;13.88;;;3.52;;
27305;SDS011;14792;50.886;6.468;2023-09-30T15:52:25;10.82;;;3.37;;
27305;SDS011;14792;50.886;6.468;2023-09-30T15:55:26;10.48;;;3.75;;
27305;SDS011;14792;50.886;6.468;2023-09-30T15:58:28;8.43;;;3.12;;
27305;SDS011;14792;50.886;6.468;2023-09-30T16:01:30;12.33;;;3.70;;
27305;SDS011;14792;50.886;6.468;2023-09-30T16:04:31;9.40;;;3.45;;
27305;SDS011;14792;50.886;6.468;2023-09-30T16:07:33;8.33;;;3.60;;
27305;SDS011;14792;50.886;6.468;2023-09-30T16:10:34;8.00;;;3.10;;
27305;SDS011;14792;50.886;6.468;2023-09-30T16:13:36;8.58;;;3.05;;
27305;SDS011;14792;50.886;6.468;2023-09-30T16:16:37;10.70;;;3.20;;
27305;SDS011;14792;50.886;6.468;2023-09-30T16:19:39;9.45;;;2.92;;
27305;SDS011;14792;50.886;6.468;2023-09-30T16:22:41;16.65;;;3.60;;
27305;SDS011;14792;50.886;6.468;2023-09-30T16:25:42;16.42;;;3.42;;
27305;SDS011;14792;50.886;6.468;2023-09-30T16:28:44;13.03;;;3.17;;
27305;SDS011;14792;50.886;6.468;2023-09-30T16:31:45;12.35;;;3.45;;
27305;SDS011;14792;50.886;6.468;2023-09-30T16:34:47;10.65;;;3.30;;
27305;SDS011;14792;50.886;6.468;2023-09-30T16:37:49;15.38;;;3.33;;
27305;SDS011;14792;50.886;6.468;2023-09-30T16:40:50;10.80;;;3.33;;
27305;SDS011;14792;50.886;6.468;2023-09-30T16:43:52;9.08;;;3.15;;
27305;SDS011;14792;50.886;6.468;2023-09-30T16:46:53;9.08;;;3.42;;
27305;SDS011;14792;50.886;6.468;2023-09-30T16:49:55;11.57;;;3.58;;
27305;SDS011;14792;50.886;6.468;2023-09-30T16:52:57;10.60;;;3.50;;
27305;SDS011;14792;50.886;6.468;2023-09-30T16:56:02;7.72;;;3.10;;
27305;SDS011;14792;50.886;6.468;2023-09-30T16:59:03;9.73;;;3.20;;
27305;SDS011;14792;50.886;6.468;2023-09-30T17:02:06;9.93;;;3.40;;
27305;SDS011;14792;50.886;6.468;2023-09-30T17:05:06;13.72;;;3.62;;
27305;SDS011;14792;50.886;6.468;2023-09-30T17:08:08;12.45;;;4.97;;
27305;SDS011;14792;50.886;6.468;2023-09-30T17:11:09;16.50;;;4.35;;
27305;SDS011;14792;50.886;6.468;2023-09-30T17:14:11;11.57;;;4.37;;
27305;SDS011;14792;50.886;6.468;2023-09-30T17:17:13;11.05;;;4.12;;
27305;SDS011;14792;50.886;6.468;2023-09-30T17:20:14;12.07;;;3.95;;
27305;SDS011;14792;50.886;6.468;2023-09-30T17:23:16;14.93;;;3.42;;
27305;SDS011;14792;50.886;6.468;2023-09-30T17:26:17;11.25;;;3.90;;
27305;SDS011;14792;50.886;6.468;2023-09-30T17:29:19;14.90;;;3.92;;
27305;SDS011;14792;50.886;6.468;2023-09-30T17:32:21;14.00;;;3.45;;
27305;SDS011;14792;50.886;6.468;2023-09-30T17:35:22;9.33;;;3.42;;
27305;SDS011;14792;50.886;6.468;2023-09-30T17:38:24;16.75;;;4.30;;
27305;SDS011;14792;50.886;6.468;2023-09-30T17:41:26;17.30;;;4.10;;
27305;SDS011;14792;50.886;6.468;2023-09-30T17:44:27;14.53;;;3.92;;
27305;SDS011;14792;50.886;6.468;2023-09-30T17:47:29;15.53;;;7.00;;
27305;SDS011;14792;50.886;6.468;2023-09-30T17:50:30;15.63;;;7.17;;
27305;SDS011;14792;50.886;6.468;2023-09-30T17:53:32;16.00;;;5.85;;
27305;SDS011;14792;50.886;6.468;2023-09-30T17:56:34;12.93;;;6.10;;
27305;SDS011;14792;50.886;6.468;2023-09-30T17:59:35;13.43;;;6.33;;
27305;SDS011;14792;50.886;6.468;2023-09-30T18:02:37;12.93;;;4.95;;
27305;SDS011;14792;50.886;6.468;2023-09-30T18:05:38;12.95;;;4.42;;